Terminal Aerodrome Forecast
Issued by NWS

Home | Current Version | Previous Version | Graphics & Text | Print | Product List | Glossary On
Versions: 1 2 3 4 5 6 7 8 9 10 11 12 13 14 15 16 17 18 19 20 21 22 23 24 25 26 27 28 29 30 31 32 33 34
000
FTUS43 KGRB 262332
TAFRHI
TAF
KRHI 262332Z 2700/2724 VRB03KT P6SM SKC
     FM270600 00000KT 3SM BR SKC
      TEMPO 2706/2708 1/4SM FG OVC002
     FM270800 00000KT 1SM BR SCT002
      TEMPO 2708/2712 1/4SM FG VV001
     FM271300 17003KT 6SM BR SKC
      TEMPO 2713/2715 2SM BR BKN010
     FM271500 20006KT P6SM SCT250=

USA.gov is the U.S. government's official web portal to all federal, state and local government web resources and services.